sensor_id;sensor_type;location;lat;lon;timestamp;pressure;altitude;pressure_sealevel;temperature
68939;BMP180;59064;45.294;11.816;2022-12-07T00:02:14;101187.80;;;5.10
68939;BMP180;59064;45.294;11.816;2022-12-07T00:04:40;101184.20;;;5.10
68939;BMP180;59064;45.294;11.816;2022-12-07T00:07:05;101172.60;;;5.00
68939;BMP180;59064;45.294;11.816;2022-12-07T00:09:30;101165.20;;;5.00
68939;BMP180;59064;45.294;11.816;2022-12-07T00:11:56;101158.20;;;4.92
68939;BMP180;59064;45.294;11.816;2022-12-07T00:14:22;101148.20;;;4.90
68939;BMP180;59064;45.294;11.816;2022-12-07T00:16:49;101144.40;;;4.90
68939;BMP180;59064;45.294;11.816;2022-12-07T00:19:15;101140.60;;;4.82
68939;BMP180;59064;45.294;11.816;2022-12-07T00:21:41;101139.00;;;4.80
68939;BMP180;59064;45.294;11.816;2022-12-07T00:24:07;101134.60;;;4.80
68939;BMP180;59064;45.294;11.816;2022-12-07T00:26:35;101132.20;;;4.72
68939;BMP180;59064;45.294;11.816;2022-12-07T00:29:08;101136.80;;;4.70
68939;BMP180;59064;45.294;11.816;2022-12-07T00:31:36;101130.80;;;4.70
68939;BMP180;59064;45.294;11.816;2022-12-07T00:34:12;101131.60;;;4.70
68939;BMP180;59064;45.294;11.816;2022-12-07T00:36:38;101133.80;;;4.70
68939;BMP180;59064;45.294;11.816;2022-12-07T00:39:04;101130.60;;;4.70
68939;BMP180;59064;45.294;11.816;2022-12-07T00:41:30;101140.20;;;4.70
68939;BMP180;59064;45.294;11.816;2022-12-07T00:43:55;101144.60;;;4.70
68939;BMP180;59064;45.294;11.816;2022-12-07T00:46:22;101145.40;;;4.70
68939;BMP180;59064;45.294;11.816;2022-12-07T00:48:50;101147.00;;;4.70
68939;BMP180;59064;45.294;11.816;2022-12-07T00:51:17;101144.80;;;4.70
68939;BMP180;59064;45.294;11.816;2022-12-07T00:53:44;101145.40;;;4.60
68939;BMP180;59064;45.294;11.816;2022-12-07T00:56:15;101144.40;;;4.60
68939;BMP180;59064;45.294;11.816;2022-12-07T00:58:41;101148.20;;;4.60
68939;BMP180;59064;45.294;11.816;2022-12-07T01:01:08;101150.60;;;4.60
68939;BMP180;59064;45.294;11.816;2022-12-07T01:03:34;101148.00;;;4.60
68939;BMP180;59064;45.294;11.816;2022-12-07T01:06:00;101152.60;;;4.60
68939;BMP180;59064;45.294;11.816;2022-12-07T01:08:26;101152.20;;;4.60
68939;BMP180;59064;45.294;11.816;2022-12-07T01:11:14;101154.80;;;4.60
68939;BMP180;59064;45.294;11.816;2022-12-07T01:13:40;101155.20;;;4.60
68939;BMP180;59064;45.294;11.816;2022-12-07T01:16:07;101147.80;;;4.58
68939;BMP180;59064;45.294;11.816;2022-12-07T01:18:35;101149.60;;;4.50
68939;BMP180;59064;45.294;11.816;2022-12-07T01:23:29;101155.20;;;4.40
68939;BMP180;59064;45.294;11.816;2022-12-07T01:26:00;101157.80;;;4.48
68939;BMP180;59064;45.294;11.816;2022-12-07T01:28:26;101157.60;;;4.48
68939;BMP180;59064;45.294;11.816;2022-12-07T01:31:00;101156.20;;;4.40
68939;BMP180;59064;45.294;11.816;2022-12-07T01:33:28;101159.00;;;4.40
68939;BMP180;59064;45.294;11.816;2022-12-07T01:35:59;101155.60;;;4.40
68939;BMP180;59064;45.294;11.816;2022-12-07T01:38:25;101156.20;;;4.40
68939;BMP180;59064;45.294;11.816;2022-12-07T01:40:55;101155.60;;;4.40
68939;BMP180;59064;45.294;11.816;2022-12-07T01:43:23;101159.20;;;4.40
68939;BMP180;59064;45.294;11.816;2022-12-07T01:45:49;101155.00;;;4.40
68939;BMP180;59064;45.294;11.816;2022-12-07T01:48:18;101155.80;;;4.40
68939;BMP180;59064;45.294;11.816;2022-12-07T01:50:47;101153.20;;;4.40
68939;BMP180;59064;45.294;11.816;2022-12-07T01:53:14;101153.00;;;4.46
68939;BMP180;59064;45.294;11.816;2022-12-07T01:55:42;101147.00;;;4.40
68939;BMP180;59064;45.294;11.816;2022-12-07T01:58:09;101150.00;;;4.40
68939;BMP180;59064;45.294;11.816;2022-12-07T02:00:35;101145.80;;;4.46
68939;BMP180;59064;45.294;11.816;2022-12-07T02:03:05;101137.00;;;4.50
68939;BMP180;59064;45.294;11.816;2022-12-07T02:05:32;101131.20;;;4.42
68939;BMP180;59064;45.294;11.816;2022-12-07T02:07:59;101133.40;;;4.40
68939;BMP180;59064;45.294;11.816;2022-12-07T02:10:27;101135.00;;;4.40
68939;BMP180;59064;45.294;11.816;2022-12-07T02:13:16;101136.60;;;4.40
68939;BMP180;59064;45.294;11.816;2022-12-07T02:21:39;101122.60;;;4.30
68939;BMP180;59064;45.294;11.816;2022-12-07T02:29:24;101121.00;;;4.10
68939;BMP180;59064;45.294;11.816;2022-12-07T02:32:00;101108.00;;;4.00
68939;BMP180;59064;45.294;11.816;2022-12-07T02:36:57;101109.00;;;3.88
68939;BMP180;59064;45.294;11.816;2022-12-07T02:39:43;101108.60;;;3.80
68939;BMP180;59064;45.294;11.816;2022-12-07T02:42:15;101107.60;;;3.80
68939;BMP180;59064;45.294;11.816;2022-12-07T02:44:44;101101.40;;;3.70
68939;BMP180;59064;45.294;11.816;2022-12-07T02:47:13;101091.60;;;3.70
68939;BMP180;59064;45.294;11.816;2022-12-07T02:49:39;101099.60;;;3.60
68939;BMP180;59064;45.294;11.816;2022-12-07T02:52:05;101096.80;;;3.60
68939;BMP180;59064;45.294;11.816;2022-12-07T02:54:31;101091.40;;;3.60
68939;BMP180;59064;45.294;11.816;2022-12-07T03:07:17;101085.40;;;3.60
68939;BMP180;59064;45.294;11.816;2022-12-07T03:18:11;101085.40;;;3.80
68939;BMP180;59064;45.294;11.816;2022-12-07T03:20:39;101077.60;;;3.80
68939;BMP180;59064;45.294;11.816;2022-12-07T03:23:08;101072.20;;;3.90
68939;BMP180;59064;45.294;11.816;2022-12-07T03:25:38;101071.40;;;3.90
68939;BMP180;59064;45.294;11.816;2022-12-07T03:28:05;101066.00;;;3.92
68939;BMP180;59064;45.294;11.816;2022-12-07T03:30:37;101067.20;;;4.00
68939;BMP180;59064;45.294;11.816;2022-12-07T03:33:10;101070.00;;;4.00
68939;BMP180;59064;45.294;11.816;2022-12-07T03:35:40;101068.80;;;4.00
68939;BMP180;59064;45.294;11.816;2022-12-07T03:38:42;101069.20;;;4.06
68939;BMP180;59064;45.294;11.816;2022-12-07T03:43:34;101067.00;;;4.10
68939;BMP180;59064;45.294;11.816;2022-12-07T03:49:08;101058.80;;;4.12
68939;BMP180;59064;45.294;11.816;2022-12-07T03:51:43;101068.80;;;4.14
68939;BMP180;59064;45.294;11.816;2022-12-07T03:54:26;101064.80;;;4.12
68939;BMP180;59064;45.294;11.816;2022-12-07T03:56:54;101059.00;;;4.18
68939;BMP180;59064;45.294;11.816;2022-12-07T03:59:20;101058.40;;;4.18
68939;BMP180;59064;45.294;11.816;2022-12-07T04:01:53;101059.40;;;4.20
68939;BMP180;59064;45.294;11.816;2022-12-07T04:04:20;101055.40;;;4.18
68939;BMP180;59064;45.294;11.816;2022-12-07T04:06:46;101053.00;;;4.20
68939;BMP180;59064;45.294;11.816;2022-12-07T04:09:11;101058.40;;;4.10
68939;BMP180;59064;45.294;11.816;2022-12-07T04:11:36;101064.60;;;4.10
68939;BMP180;59064;45.294;11.816;2022-12-07T04:14:02;101060.60;;;4.10
68939;BMP180;59064;45.294;11.816;2022-12-07T04:16:52;101060.80;;;4.10
68939;BMP180;59064;45.294;11.816;2022-12-07T04:19:20;101059.40;;;4.10
68939;BMP180;59064;45.294;11.816;2022-12-07T04:21:46;101062.80;;;4.10
68939;BMP180;59064;45.294;11.816;2022-12-07T04:24:13;101059.40;;;4.14
68939;BMP180;59064;45.294;11.816;2022-12-07T04:26:39;101055.80;;;4.20
68939;BMP180;59064;45.294;11.816;2022-12-07T04:29:06;101049.40;;;4.20
68939;BMP180;59064;45.294;11.816;2022-12-07T04:31:31;101048.80;;;4.20
68939;BMP180;59064;45.294;11.816;2022-12-07T04:33:57;101039.00;;;4.18
68939;BMP180;59064;45.294;11.816;2022-12-07T04:36:22;101034.40;;;4.12
68939;BMP180;59064;45.294;11.816;2022-12-07T04:38:48;101034.20;;;4.10
68939;BMP180;59064;45.294;11.816;2022-12-07T04:41:13;101033.40;;;4.04
68939;BMP180;59064;45.294;11.816;2022-12-07T04:43:39;101030.20;;;4.00
68939;BMP180;59064;45.294;11.816;2022-12-07T04:46:04;101036.40;;;3.90
68939;BMP180;59064;45.294;11.816;2022-12-07T04:48:31;101039.40;;;3.86
68939;BMP180;59064;45.294;11.816;2022-12-07T04:50:56;101039.40;;;3.80
68939;BMP180;59064;45.294;11.816;2022-12-07T04:53:22;101032.40;;;3.80
68939;BMP180;59064;45.294;11.816;2022-12-07T04:55:48;101030.80;;;3.80
68939;BMP180;59064;45.294;11.816;2022-12-07T04:58:13;101024.20;;;3.80
68939;BMP180;59064;45.294;11.816;2022-12-07T05:00:39;101025.40;;;3.80
68939;BMP180;59064;45.294;11.816;2022-12-07T05:03:05;101027.20;;;3.80
68939;BMP180;59064;45.294;11.816;2022-12-07T05:05:31;101028.00;;;3.80
68939;BMP180;59064;45.294;11.816;2022-12-07T05:07:56;101029.20;;;3.76
68939;BMP180;59064;45.294;11.816;2022-12-07T05:10:22;101028.00;;;3.80
68939;BMP180;59064;45.294;11.816;2022-12-07T05:12:47;101030.60;;;3.80
68939;BMP180;59064;45.294;11.816;2022-12-07T05:15:14;101029.60;;;3.74
68939;BMP180;59064;45.294;11.816;2022-12-07T05:17:40;101030.60;;;3.78
68939;BMP180;59064;45.294;11.816;2022-12-07T05:20:06;101033.40;;;3.72
68939;BMP180;59064;45.294;11.816;2022-12-07T05:22:31;101031.40;;;3.72
68939;BMP180;59064;45.294;11.816;2022-12-07T05:24:57;101031.20;;;3.70
68939;BMP180;59064;45.294;11.816;2022-12-07T05:27:23;101026.80;;;3.70
68939;BMP180;59064;45.294;11.816;2022-12-07T05:29:50;101025.40;;;3.66
68939;BMP180;59064;45.294;11.816;2022-12-07T05:32:16;101025.40;;;3.60
68939;BMP180;59064;45.294;11.816;2022-12-07T05:34:41;101025.40;;;3.50
68939;BMP180;59064;45.294;11.816;2022-12-07T05:37:07;101026.80;;;3.40
68939;BMP180;59064;45.294;11.816;2022-12-07T05:39:32;101025.80;;;3.40
68939;BMP180;59064;45.294;11.816;2022-12-07T05:41:57;101027.00;;;3.30
68939;BMP180;59064;45.294;11.816;2022-12-07T05:44:40;101021.80;;;3.20
68939;BMP180;59064;45.294;11.816;2022-12-07T05:47:06;101025.00;;;3.20
68939;BMP180;59064;45.294;11.816;2022-12-07T05:49:32;101028.60;;;3.20
68939;BMP180;59064;45.294;11.816;2022-12-07T05:51:57;101027.60;;;3.14
68939;BMP180;59064;45.294;11.816;2022-12-07T05:54:23;101027.80;;;3.10
68939;BMP180;59064;45.294;11.816;2022-12-07T05:56:49;101025.40;;;3.10
68939;BMP180;59064;45.294;11.816;2022-12-07T05:59:15;101031.20;;;3.20
68939;BMP180;59064;45.294;11.816;2022-12-07T06:01:55;101020.80;;;3.20
68939;BMP180;59064;45.294;11.816;2022-12-07T06:04:21;101022.40;;;3.20
68939;BMP180;59064;45.294;11.816;2022-12-07T06:06:47;101017.00;;;3.24
68939;BMP180;59064;45.294;11.816;2022-12-07T06:09:13;101018.00;;;3.30
68939;BMP180;59064;45.294;11.816;2022-12-07T06:11:40;101020.40;;;3.28
68939;BMP180;59064;45.294;11.816;2022-12-07T06:14:24;101023.60;;;3.30
68939;BMP180;59064;45.294;11.816;2022-12-07T06:16:50;101027.60;;;3.30
68939;BMP180;59064;45.294;11.816;2022-12-07T06:19:16;101033.00;;;3.20
68939;BMP180;59064;45.294;11.816;2022-12-07T06:21:41;101034.40;;;3.20
68939;BMP180;59064;45.294;11.816;2022-12-07T06:24:10;101039.80;;;3.10
68939;BMP180;59064;45.294;11.816;2022-12-07T06:26:37;101039.60;;;3.10
68939;BMP180;59064;45.294;11.816;2022-12-07T06:29:03;101044.60;;;3.02
68939;BMP180;59064;45.294;11.816;2022-12-07T06:31:28;101041.20;;;3.02
68939;BMP180;59064;45.294;11.816;2022-12-07T06:34:04;101038.40;;;3.10
68939;BMP180;59064;45.294;11.816;2022-12-07T06:36:30;101040.00;;;3.00
68939;BMP180;59064;45.294;11.816;2022-12-07T06:38:57;101035.60;;;3.00
68939;BMP180;59064;45.294;11.816;2022-12-07T06:41:22;101040.40;;;3.00
68939;BMP180;59064;45.294;11.816;2022-12-07T06:43:48;101042.00;;;3.00
68939;BMP180;59064;45.294;11.816;2022-12-07T06:46:15;101049.20;;;3.10
68939;BMP180;59064;45.294;11.816;2022-12-07T06:48:41;101047.20;;;3.10
68939;BMP180;59064;45.294;11.816;2022-12-07T06:51:07;101048.20;;;3.10
68939;BMP180;59064;45.294;11.816;2022-12-07T06:53:34;101046.80;;;3.10
68939;BMP180;59064;45.294;11.816;2022-12-07T06:56:01;101047.00;;;3.10
68939;BMP180;59064;45.294;11.816;2022-12-07T06:58:26;101044.80;;;3.14
68939;BMP180;59064;45.294;11.816;2022-12-07T07:00:52;101045.40;;;3.22
68939;BMP180;59064;45.294;11.816;2022-12-07T07:03:18;101046.40;;;3.30
68939;BMP180;59064;45.294;11.816;2022-12-07T07:05:44;101053.80;;;3.40
68939;BMP180;59064;45.294;11.816;2022-12-07T07:08:10;101058.00;;;3.46
68939;BMP180;59064;45.294;11.816;2022-12-07T07:10:36;101058.00;;;3.50
68939;BMP180;59064;45.294;11.816;2022-12-07T07:13:02;101063.80;;;3.60
68939;BMP180;59064;45.294;11.816;2022-12-07T07:15:27;101061.40;;;3.70
68939;BMP180;59064;45.294;11.816;2022-12-07T07:17:53;101064.00;;;3.80
68939;BMP180;59064;45.294;11.816;2022-12-07T07:20:19;101068.80;;;3.90
68939;BMP180;59064;45.294;11.816;2022-12-07T07:22:44;101070.00;;;4.00
68939;BMP180;59064;45.294;11.816;2022-12-07T07:25:10;101070.20;;;4.08
68939;BMP180;59064;45.294;11.816;2022-12-07T07:27:35;101067.40;;;4.20
68939;BMP180;59064;45.294;11.816;2022-12-07T07:30:01;101066.00;;;4.30
68939;BMP180;59064;45.294;11.816;2022-12-07T07:32:27;101069.40;;;4.40
68939;BMP180;59064;45.294;11.816;2022-12-07T07:34:53;101060.60;;;4.50
68939;BMP180;59064;45.294;11.816;2022-12-07T07:37:18;101067.80;;;4.60
68939;BMP180;59064;45.294;11.816;2022-12-07T07:39:44;101067.20;;;4.70
68939;BMP180;59064;45.294;11.816;2022-12-07T07:42:09;101068.00;;;4.88
68939;BMP180;59064;45.294;11.816;2022-12-07T07:44:35;101068.20;;;5.08
68939;BMP180;59064;45.294;11.816;2022-12-07T07:47:01;101070.00;;;5.32
68939;BMP180;59064;45.294;11.816;2022-12-07T07:49:27;101073.60;;;5.64
68939;BMP180;59064;45.294;11.816;2022-12-07T07:51:53;101078.40;;;5.80
68939;BMP180;59064;45.294;11.816;2022-12-07T07:54:18;101077.80;;;5.90
68939;BMP180;59064;45.294;11.816;2022-12-07T07:56:44;101081.40;;;6.00
68939;BMP180;59064;45.294;11.816;2022-12-07T07:59:09;101073.20;;;6.10
68939;BMP180;59064;45.294;11.816;2022-12-07T08:01:35;101076.80;;;6.20
68939;BMP180;59064;45.294;11.816;2022-12-07T08:04:00;101072.20;;;6.20
68939;BMP180;59064;45.294;11.816;2022-12-07T08:06:26;101079.60;;;6.20
68939;BMP180;59064;45.294;11.816;2022-12-07T08:08:52;101082.00;;;6.20
68939;BMP180;59064;45.294;11.816;2022-12-07T08:11:17;101085.00;;;6.24
68939;BMP180;59064;45.294;11.816;2022-12-07T08:13:45;101088.00;;;6.40
68939;BMP180;59064;45.294;11.816;2022-12-07T08:16:15;101086.00;;;6.50
68939;BMP180;59064;45.294;11.816;2022-12-07T08:18:41;101089.00;;;6.66
68939;BMP180;59064;45.294;11.816;2022-12-07T08:21:09;101089.40;;;6.70
68939;BMP180;59064;45.294;11.816;2022-12-07T08:23:35;101083.40;;;6.80
68939;BMP180;59064;45.294;11.816;2022-12-07T08:26:03;101083.60;;;6.78
68939;BMP180;59064;45.294;11.816;2022-12-07T08:28:29;101090.40;;;6.82
68939;BMP180;59064;45.294;11.816;2022-12-07T08:31:06;101094.80;;;6.96
68939;BMP180;59064;45.294;11.816;2022-12-07T08:33:33;101097.20;;;7.00
68939;BMP180;59064;45.294;11.816;2022-12-07T08:36:08;101095.80;;;7.00
68939;BMP180;59064;45.294;11.816;2022-12-07T08:38:35;101094.80;;;7.10
68939;BMP180;59064;45.294;11.816;2022-12-07T08:41:00;101101.00;;;7.20
68939;BMP180;59064;45.294;11.816;2022-12-07T08:43:26;101102.00;;;7.30
68939;BMP180;59064;45.294;11.816;2022-12-07T08:46:03;101102.00;;;7.50
68939;BMP180;59064;45.294;11.816;2022-12-07T08:48:32;101108.60;;;7.70
68939;BMP180;59064;45.294;11.816;2022-12-07T08:50:58;101114.40;;;7.86
68939;BMP180;59064;45.294;11.816;2022-12-07T08:53:23;101113.40;;;7.90
68939;BMP180;59064;45.294;11.816;2022-12-07T08:55:49;101110.00;;;7.90
68939;BMP180;59064;45.294;11.816;2022-12-07T08:58:15;101114.80;;;7.80
68939;BMP180;59064;45.294;11.816;2022-12-07T09:00:41;101116.20;;;7.80
68939;BMP180;59064;45.294;11.816;2022-12-07T09:03:07;101122.60;;;7.90
68939;BMP180;59064;45.294;11.816;2022-12-07T09:05:33;101122.60;;;8.00
68939;BMP180;59064;45.294;11.816;2022-12-07T09:08:00;101125.00;;;8.06
68939;BMP180;59064;45.294;11.816;2022-12-07T09:10:27;101123.20;;;8.02
68939;BMP180;59064;45.294;11.816;2022-12-07T09:12:53;101123.20;;;8.00
68939;BMP180;59064;45.294;11.816;2022-12-07T09:15:18;101118.40;;;8.10
68939;BMP180;59064;45.294;11.816;2022-12-07T09:17:44;101118.20;;;8.10
68939;BMP180;59064;45.294;11.816;2022-12-07T09:20:10;101114.60;;;8.10
68939;BMP180;59064;45.294;11.816;2022-12-07T09:22:45;101121.00;;;8.10
68939;BMP180;59064;45.294;11.816;2022-12-07T09:25:11;101119.80;;;8.14
68939;BMP180;59064;45.294;11.816;2022-12-07T09:27:37;101117.80;;;8.20
68939;BMP180;59064;45.294;11.816;2022-12-07T09:30:03;101114.20;;;8.20
68939;BMP180;59064;45.294;11.816;2022-12-07T09:32:29;101115.20;;;8.28
68939;BMP180;59064;45.294;11.816;2022-12-07T09:34:55;101115.20;;;8.30
68939;BMP180;59064;45.294;11.816;2022-12-07T09:37:20;101116.00;;;8.30
68939;BMP180;59064;45.294;11.816;2022-12-07T09:39:46;101107.80;;;8.30
68939;BMP180;59064;45.294;11.816;2022-12-07T09:42:41;101110.00;;;8.24
68939;BMP180;59064;45.294;11.816;2022-12-07T09:45:10;101109.80;;;8.28
68939;BMP180;59064;45.294;11.816;2022-12-07T09:47:37;101110.40;;;8.30
68939;BMP180;59064;45.294;11.816;2022-12-07T09:50:14;101106.60;;;8.30
68939;BMP180;59064;45.294;11.816;2022-12-07T09:52:41;101099.20;;;8.30
68939;BMP180;59064;45.294;11.816;2022-12-07T09:55:14;101092.60;;;8.30
68939;BMP180;59064;45.294;11.816;2022-12-07T09:57:40;101095.20;;;8.30
68939;BMP180;59064;45.294;11.816;2022-12-07T10:00:15;101097.40;;;8.30
68939;BMP180;59064;45.294;11.816;2022-12-07T10:02:54;101089.20;;;8.40
68939;BMP180;59064;45.294;11.816;2022-12-07T10:05:30;101085.20;;;8.48
68939;BMP180;59064;45.294;11.816;2022-12-07T10:07:56;101083.60;;;8.50
68939;BMP180;59064;45.294;11.816;2022-12-07T10:10:33;101083.20;;;8.50
68939;BMP180;59064;45.294;11.816;2022-12-07T10:13:10;101082.00;;;8.50
68939;BMP180;59064;45.294;11.816;2022-12-07T10:15:59;101076.20;;;8.50
68939;BMP180;59064;45.294;11.816;2022-12-07T10:18:38;101077.00;;;8.60
68939;BMP180;59064;45.294;11.816;2022-12-07T10:21:16;101072.20;;;8.60
68939;BMP180;59064;45.294;11.816;2022-12-07T10:29:55;101069.00;;;8.80
68939;BMP180;59064;45.294;11.816;2022-12-07T10:34:39;101074.80;;;9.20
68939;BMP180;59064;45.294;11.816;2022-12-07T10:42:25;101070.20;;;9.72
68939;BMP180;59064;45.294;11.816;2022-12-07T10:53:07;101060.40;;;10.00
68939;BMP180;59064;45.294;11.816;2022-12-07T10:58:35;101051.00;;;10.30
68939;BMP180;59064;45.294;11.816;2022-12-07T11:07:10;101047.40;;;10.60
68939;BMP180;59064;45.294;11.816;2022-12-07T11:09:43;101050.20;;;10.70
68939;BMP180;59064;45.294;11.816;2022-12-07T11:18:04;101053.00;;;11.20
68939;BMP180;59064;45.294;11.816;2022-12-07T11:25:56;101043.00;;;11.68
68939;BMP180;59064;45.294;11.816;2022-12-07T11:28:57;101037.40;;;11.78
68939;BMP180;59064;45.294;11.816;2022-12-07T11:34:36;101027.80;;;12.10
68939;BMP180;59064;45.294;11.816;2022-12-07T11:37:08;101021.80;;;12.10
68939;BMP180;59064;45.294;11.816;2022-12-07T11:39:51;101025.20;;;12.30
68939;BMP180;59064;45.294;11.816;2022-12-07T11:43:01;101022.60;;;12.42
68939;BMP180;59064;45.294;11.816;2022-12-07T11:45:32;101019.00;;;12.58
68939;BMP180;59064;45.294;11.816;2022-12-07T11:48:28;101021.40;;;12.80
68939;BMP180;59064;45.294;11.816;2022-12-07T11:50:59;101017.60;;;13.08
68939;BMP180;59064;45.294;11.816;2022-12-07T11:53:44;101017.20;;;13.28
68939;BMP180;59064;45.294;11.816;2022-12-07T11:56:17;101021.20;;;13.42
68939;BMP180;59064;45.294;11.816;2022-12-07T12:06:37;101006.60;;;14.10
68939;BMP180;59064;45.294;11.816;2022-12-07T12:09:31;100999.60;;;14.00
68939;BMP180;59064;45.294;11.816;2022-12-07T12:17:47;100988.40;;;14.20
68939;BMP180;59064;45.294;11.816;2022-12-07T12:20:32;100986.80;;;14.30
68939;BMP180;59064;45.294;11.816;2022-12-07T12:23:09;100985.80;;;14.40
68939;BMP180;59064;45.294;11.816;2022-12-07T12:25:43;100983.40;;;14.50
68939;BMP180;59064;45.294;11.816;2022-12-07T12:28:27;100975.00;;;14.40
68939;BMP180;59064;45.294;11.816;2022-12-07T12:33:47;100978.40;;;14.40
68939;BMP180;59064;45.294;11.816;2022-12-07T12:46:52;100978.60;;;15.10
68939;BMP180;59064;45.294;11.816;2022-12-07T12:56:43;100974.20;;;15.30
68939;BMP180;59064;45.294;11.816;2022-12-07T13:01:47;100976.00;;;15.88
68939;BMP180;59064;45.294;11.816;2022-12-07T13:04:27;100973.00;;;16.00
68939;BMP180;59064;45.294;11.816;2022-12-07T13:06:53;100967.80;;;15.96
68939;BMP180;59064;45.294;11.816;2022-12-07T13:09:28;100972.40;;;16.10
68939;BMP180;59064;45.294;11.816;2022-12-07T13:12:05;100971.00;;;16.10
68939;BMP180;59064;45.294;11.816;2022-12-07T13:14:55;100968.60;;;16.24
68939;BMP180;59064;45.294;11.816;2022-12-07T13:19:58;100969.20;;;16.30
68939;BMP180;59064;45.294;11.816;2022-12-07T13:25:07;100968.80;;;16.82
68939;BMP180;59064;45.294;11.816;2022-12-07T13:27:40;100972.40;;;16.80
68939;BMP180;59064;45.294;11.816;2022-12-07T13:30:24;100964.00;;;16.38
68939;BMP180;59064;45.294;11.816;2022-12-07T13:32:53;100967.60;;;15.90
68939;BMP180;59064;45.294;11.816;2022-12-07T13:35:34;100967.00;;;15.60
68939;BMP180;59064;45.294;11.816;2022-12-07T13:38:14;100962.40;;;15.20
68939;BMP180;59064;45.294;11.816;2022-12-07T13:40:42;100966.00;;;14.98
68939;BMP180;59064;45.294;11.816;2022-12-07T13:43:15;100966.60;;;14.90
68939;BMP180;59064;45.294;11.816;2022-12-07T13:45:42;100965.60;;;14.90
68939;BMP180;59064;45.294;11.816;2022-12-07T13:48:20;100962.60;;;14.22
68939;BMP180;59064;45.294;11.816;2022-12-07T13:50:55;100959.40;;;13.50
68939;BMP180;59064;45.294;11.816;2022-12-07T13:53:21;100965.40;;;12.82
68939;BMP180;59064;45.294;11.816;2022-12-07T13:55:47;100961.00;;;12.30
68939;BMP180;59064;45.294;11.816;2022-12-07T13:58:13;100963.00;;;12.04
68939;BMP180;59064;45.294;11.816;2022-12-07T14:00:39;100964.40;;;11.80
68939;BMP180;59064;45.294;11.816;2022-12-07T14:05:41;100962.60;;;11.30
68939;BMP180;59064;45.294;11.816;2022-12-07T14:10:41;100966.20;;;11.20
68939;BMP180;59064;45.294;11.816;2022-12-07T14:13:33;100964.80;;;11.10
68939;BMP180;59064;45.294;11.816;2022-12-07T14:16:22;100968.00;;;10.90
68939;BMP180;59064;45.294;11.816;2022-12-07T14:18:46;100963.20;;;10.90
68939;BMP180;59064;45.294;11.816;2022-12-07T14:23:38;100963.60;;;11.00
68939;BMP180;59064;45.294;11.816;2022-12-07T14:26:12;100957.80;;;11.08
68939;BMP180;59064;45.294;11.816;2022-12-07T14:28:39;100958.00;;;11.10
68939;BMP180;59064;45.294;11.816;2022-12-07T14:31:17;100955.80;;;11.10
68939;BMP180;59064;45.294;11.816;2022-12-07T14:33:44;100958.60;;;11.12
68939;BMP180;59064;45.294;11.816;2022-12-07T14:36:11;100960.00;;;11.20
68939;BMP180;59064;45.294;11.816;2022-12-07T14:38:37;100960.20;;;11.30
68939;BMP180;59064;45.294;11.816;2022-12-07T14:41:04;100956.00;;;11.40
68939;BMP180;59064;45.294;11.816;2022-12-07T14:43:50;100953.80;;;11.56
68939;BMP180;59064;45.294;11.816;2022-12-07T14:46:15;100957.60;;;11.76
68939;BMP180;59064;45.294;11.816;2022-12-07T14:48:41;100956.40;;;11.90
68939;BMP180;59064;45.294;11.816;2022-12-07T14:51:08;100955.40;;;11.96
68939;BMP180;59064;45.294;11.816;2022-12-07T14:53:39;100955.20;;;12.00
68939;BMP180;59064;45.294;11.816;2022-12-07T14:56:06;100952.80;;;12.10
68939;BMP180;59064;45.294;11.816;2022-12-07T14:58:32;100954.00;;;12.00
68939;BMP180;59064;45.294;11.816;2022-12-07T15:00:58;100957.20;;;11.92
68939;BMP180;59064;45.294;11.816;2022-12-07T15:03:24;100957.00;;;11.80
68939;BMP180;59064;45.294;11.816;2022-12-07T15:05:49;100960.60;;;11.74
68939;BMP180;59064;45.294;11.816;2022-12-07T15:08:15;100967.20;;;11.60
68939;BMP180;59064;45.294;11.816;2022-12-07T15:10:40;100971.20;;;11.50
68939;BMP180;59064;45.294;11.816;2022-12-07T15:13:07;100977.60;;;11.30
68939;BMP180;59064;45.294;11.816;2022-12-07T15:15:53;100980.80;;;11.00
68939;BMP180;59064;45.294;11.816;2022-12-07T15:18:20;100978.80;;;10.62
68939;BMP180;59064;45.294;11.816;2022-12-07T15:20:46;100982.40;;;10.30
68939;BMP180;59064;45.294;11.816;2022-12-07T15:23:13;100982.60;;;10.00
68939;BMP180;59064;45.294;11.816;2022-12-07T15:25:43;100982.20;;;9.76
68939;BMP180;59064;45.294;11.816;2022-12-07T15:28:08;100980.00;;;9.40
68939;BMP180;59064;45.294;11.816;2022-12-07T15:30:37;100980.60;;;9.00
68939;BMP180;59064;45.294;11.816;2022-12-07T15:33:02;100978.80;;;8.68
68939;BMP180;59064;45.294;11.816;2022-12-07T15:35:28;100980.60;;;8.34
68939;BMP180;59064;45.294;11.816;2022-12-07T15:37:53;100978.40;;;8.10
68939;BMP180;59064;45.294;11.816;2022-12-07T15:40:19;100981.80;;;7.80
68939;BMP180;59064;45.294;11.816;2022-12-07T15:42:44;100981.60;;;7.60
68939;BMP180;59064;45.294;11.816;2022-12-07T15:45:09;100984.80;;;7.40
68939;BMP180;59064;45.294;11.816;2022-12-07T15:47:37;100983.40;;;7.30
68939;BMP180;59064;45.294;11.816;2022-12-07T15:50:05;100990.80;;;7.10
68939;BMP180;59064;45.294;11.816;2022-12-07T15:52:31;100991.80;;;7.00
68939;BMP180;59064;45.294;11.816;2022-12-07T15:54:57;100994.20;;;6.80
68939;BMP180;59064;45.294;11.816;2022-12-07T15:57:22;101000.80;;;6.70
68939;BMP180;59064;45.294;11.816;2022-12-07T15:59:48;100999.40;;;6.60
68939;BMP180;59064;45.294;11.816;2022-12-07T16:02:14;101000.60;;;6.50
68939;BMP180;59064;45.294;11.816;2022-12-07T16:04:39;100995.00;;;6.40
68939;BMP180;59064;45.294;11.816;2022-12-07T16:07:05;100994.40;;;6.30
68939;BMP180;59064;45.294;11.816;2022-12-07T16:09:31;100999.00;;;6.28
68939;BMP180;59064;45.294;11.816;2022-12-07T16:11:57;100996.60;;;6.20
68939;BMP180;59064;45.294;11.816;2022-12-07T16:14:22;100995.40;;;6.10
68939;BMP180;59064;45.294;11.816;2022-12-07T16:16:48;100993.60;;;6.10
68939;BMP180;59064;45.294;11.816;2022-12-07T16:19:14;101001.60;;;6.00
68939;BMP180;59064;45.294;11.816;2022-12-07T16:21:41;100996.00;;;5.90